sensor_id;sensor_type;location;lat;lon;timestamp;P1;durP1;ratioP1;P2;durP2;ratioP2
42742;SDS011;28397;44.552;-0.848;2024-02-26T00:01:26;47.33;;;10.85;;
42742;SDS011;28397;44.552;-0.848;2024-02-26T00:03:52;47.83;;;10.20;;
42742;SDS011;28397;44.552;-0.848;2024-02-26T00:06:18;49.78;;;10.60;;
42742;SDS011;28397;44.552;-0.848;2024-02-26T00:08:44;43.22;;;9.57;;
42742;SDS011;28397;44.552;-0.848;2024-02-26T00:11:10;39.63;;;9.70;;
42742;SDS011;28397;44.552;-0.848;2024-02-26T00:13:36;41.72;;;8.20;;
42742;SDS011;28397;44.552;-0.848;2024-02-26T00:16:02;48.95;;;10.30;;
42742;SDS011;28397;44.552;-0.848;2024-02-26T00:18:32;41.33;;;9.70;;
42742;SDS011;28397;44.552;-0.848;2024-02-26T00:20:58;46.28;;;9.70;;
42742;SDS011;28397;44.552;-0.848;2024-02-26T00:23:24;46.58;;;10.05;;
42742;SDS011;28397;44.552;-0.848;2024-02-26T00:25:49;46.80;;;10.55;;
42742;SDS011;28397;44.552;-0.848;2024-02-26T00:28:15;43.60;;;10.07;;
42742;SDS011;28397;44.552;-0.848;2024-02-26T00:30:40;42.50;;;9.93;;
42742;SDS011;28397;44.552;-0.848;2024-02-26T00:33:06;41.65;;;9.00;;
42742;SDS011;28397;44.552;-0.848;2024-02-26T00:35:32;43.47;;;9.57;;
42742;SDS011;28397;44.552;-0.848;2024-02-26T00:37:57;37.15;;;8.05;;
42742;SDS011;28397;44.552;-0.848;2024-02-26T00:40:23;34.72;;;7.78;;
42742;SDS011;28397;44.552;-0.848;2024-02-26T00:42:49;34.60;;;7.28;;
42742;SDS011;28397;44.552;-0.848;2024-02-26T00:45:15;33.60;;;7.50;;
42742;SDS011;28397;44.552;-0.848;2024-02-26T00:47:41;31.52;;;7.38;;
42742;SDS011;28397;44.552;-0.848;2024-02-26T00:50:07;25.23;;;6.13;;
42742;SDS011;28397;44.552;-0.848;2024-02-26T00:52:33;26.42;;;6.55;;
42742;SDS011;28397;44.552;-0.848;2024-02-26T00:54:59;29.52;;;6.85;;
42742;SDS011;28397;44.552;-0.848;2024-02-26T00:57:25;28.75;;;6.75;;
42742;SDS011;28397;44.552;-0.848;2024-02-26T00:59:51;34.53;;;8.45;;
42742;SDS011;28397;44.552;-0.848;2024-02-26T01:02:16;34.65;;;8.27;;
42742;SDS011;28397;44.552;-0.848;2024-02-26T01:04:42;37.78;;;7.88;;
42742;SDS011;28397;44.552;-0.848;2024-02-26T01:07:08;33.00;;;8.20;;
42742;SDS011;28397;44.552;-0.848;2024-02-26T01:09:34;32.60;;;8.20;;
42742;SDS011;28397;44.552;-0.848;2024-02-26T01:11:59;32.13;;;7.75;;
42742;SDS011;28397;44.552;-0.848;2024-02-26T01:14:27;37.10;;;8.32;;
42742;SDS011;28397;44.552;-0.848;2024-02-26T01:16:53;36.05;;;8.15;;
42742;SDS011;28397;44.552;-0.848;2024-02-26T01:19:18;36.78;;;7.60;;
42742;SDS011;28397;44.552;-0.848;2024-02-26T01:21:44;31.27;;;7.85;;
42742;SDS011;28397;44.552;-0.848;2024-02-26T01:24:10;34.60;;;7.53;;
42742;SDS011;28397;44.552;-0.848;2024-02-26T01:26:35;35.90;;;8.15;;
42742;SDS011;28397;44.552;-0.848;2024-02-26T01:29:01;36.13;;;8.50;;
42742;SDS011;28397;44.552;-0.848;2024-02-26T01:31:27;33.30;;;8.60;;
42742;SDS011;28397;44.552;-0.848;2024-02-26T01:33:52;32.33;;;8.07;;
42742;SDS011;28397;44.552;-0.848;2024-02-26T01:36:18;26.00;;;6.30;;
42742;SDS011;28397;44.552;-0.848;2024-02-26T01:38:43;26.02;;;6.30;;
42742;SDS011;28397;44.552;-0.848;2024-02-26T01:41:09;26.50;;;6.53;;
42742;SDS011;28397;44.552;-0.848;2024-02-26T01:43:35;32.13;;;7.30;;
42742;SDS011;28397;44.552;-0.848;2024-02-26T01:46:00;30.40;;;7.50;;
42742;SDS011;28397;44.552;-0.848;2024-02-26T01:48:26;30.90;;;6.90;;
42742;SDS011;28397;44.552;-0.848;2024-02-26T01:50:52;31.17;;;7.00;;
42742;SDS011;28397;44.552;-0.848;2024-02-26T01:53:17;30.38;;;7.13;;
42742;SDS011;28397;44.552;-0.848;2024-02-26T01:55:44;35.75;;;7.50;;
42742;SDS011;28397;44.552;-0.848;2024-02-26T01:58:10;29.05;;;7.07;;
42742;SDS011;28397;44.552;-0.848;2024-02-26T02:00:36;32.75;;;7.65;;
42742;SDS011;28397;44.552;-0.848;2024-02-26T02:03:03;26.60;;;7.07;;
42742;SDS011;28397;44.552;-0.848;2024-02-26T02:05:29;32.92;;;7.47;;
42742;SDS011;28397;44.552;-0.848;2024-02-26T02:07:56;34.22;;;7.70;;
42742;SDS011;28397;44.552;-0.848;2024-02-26T02:10:22;33.33;;;7.60;;
42742;SDS011;28397;44.552;-0.848;2024-02-26T02:12:50;29.55;;;7.55;;
42742;SDS011;28397;44.552;-0.848;2024-02-26T02:15:16;33.72;;;7.90;;
42742;SDS011;28397;44.552;-0.848;2024-02-26T02:17:42;38.35;;;8.77;;
42742;SDS011;28397;44.552;-0.848;2024-02-26T02:20:08;33.70;;;7.88;;
42742;SDS011;28397;44.552;-0.848;2024-02-26T02:22:34;29.20;;;7.18;;
42742;SDS011;28397;44.552;-0.848;2024-02-26T02:25:00;31.83;;;7.20;;
42742;SDS011;28397;44.552;-0.848;2024-02-26T02:27:26;34.67;;;7.68;;
42742;SDS011;28397;44.552;-0.848;2024-02-26T02:29:53;30.50;;;7.97;;
42742;SDS011;28397;44.552;-0.848;2024-02-26T02:32:18;32.35;;;7.30;;
42742;SDS011;28397;44.552;-0.848;2024-02-26T02:34:45;29.85;;;7.65;;
42742;SDS011;28397;44.552;-0.848;2024-02-26T02:37:11;33.20;;;8.20;;
42742;SDS011;28397;44.552;-0.848;2024-02-26T02:39:36;22.45;;;5.90;;
42742;SDS011;28397;44.552;-0.848;2024-02-26T02:42:02;26.52;;;5.80;;
42742;SDS011;28397;44.552;-0.848;2024-02-26T02:44:28;25.65;;;6.40;;
42742;SDS011;28397;44.552;-0.848;2024-02-26T02:46:53;23.92;;;5.65;;
42742;SDS011;28397;44.552;-0.848;2024-02-26T02:49:19;25.00;;;6.03;;
42742;SDS011;28397;44.552;-0.848;2024-02-26T02:51:45;20.77;;;5.35;;
42742;SDS011;28397;44.552;-0.848;2024-02-26T02:54:11;24.95;;;5.78;;
42742;SDS011;28397;44.552;-0.848;2024-02-26T02:56:36;21.50;;;5.82;;
42742;SDS011;28397;44.552;-0.848;2024-02-26T02:59:02;26.92;;;6.97;;
42742;SDS011;28397;44.552;-0.848;2024-02-26T03:01:28;28.23;;;7.07;;
42742;SDS011;28397;44.552;-0.848;2024-02-26T03:03:54;34.88;;;7.38;;
42742;SDS011;28397;44.552;-0.848;2024-02-26T03:06:19;36.45;;;8.25;;
42742;SDS011;28397;44.552;-0.848;2024-02-26T03:08:46;35.72;;;7.75;;
42742;SDS011;28397;44.552;-0.848;2024-02-26T03:11:15;30.55;;;7.57;;
42742;SDS011;28397;44.552;-0.848;2024-02-26T03:13:41;32.00;;;7.30;;
42742;SDS011;28397;44.552;-0.848;2024-02-26T03:16:06;32.38;;;7.72;;
42742;SDS011;28397;44.552;-0.848;2024-02-26T03:18:32;31.52;;;7.63;;
42742;SDS011;28397;44.552;-0.848;2024-02-26T03:20:58;33.25;;;7.43;;
42742;SDS011;28397;44.552;-0.848;2024-02-26T03:23:23;35.00;;;8.35;;
42742;SDS011;28397;44.552;-0.848;2024-02-26T03:25:49;29.70;;;6.88;;
42742;SDS011;28397;44.552;-0.848;2024-02-26T03:28:15;27.95;;;6.15;;
42742;SDS011;28397;44.552;-0.848;2024-02-26T03:30:40;29.73;;;6.97;;
42742;SDS011;28397;44.552;-0.848;2024-02-26T03:33:06;30.02;;;6.90;;
42742;SDS011;28397;44.552;-0.848;2024-02-26T03:35:31;30.50;;;6.85;;
42742;SDS011;28397;44.552;-0.848;2024-02-26T03:37:57;30.83;;;7.15;;
42742;SDS011;28397;44.552;-0.848;2024-02-26T03:40:23;28.13;;;6.80;;
42742;SDS011;28397;44.552;-0.848;2024-02-26T03:42:49;33.67;;;7.72;;
42742;SDS011;28397;44.552;-0.848;2024-02-26T03:45:15;28.00;;;6.72;;
42742;SDS011;28397;44.552;-0.848;2024-02-26T03:47:41;33.17;;;7.45;;
42742;SDS011;28397;44.552;-0.848;2024-02-26T03:50:07;34.63;;;7.72;;
42742;SDS011;28397;44.552;-0.848;2024-02-26T03:52:33;31.60;;;7.82;;
42742;SDS011;28397;44.552;-0.848;2024-02-26T03:54:59;28.70;;;7.10;;
42742;SDS011;28397;44.552;-0.848;2024-02-26T03:57:25;25.27;;;6.22;;
42742;SDS011;28397;44.552;-0.848;2024-02-26T03:59:50;27.50;;;6.95;;
42742;SDS011;28397;44.552;-0.848;2024-02-26T04:02:16;25.65;;;6.57;;
42742;SDS011;28397;44.552;-0.848;2024-02-26T04:04:44;29.13;;;7.13;;
42742;SDS011;28397;44.552;-0.848;2024-02-26T04:07:10;30.33;;;7.30;;
42742;SDS011;28397;44.552;-0.848;2024-02-26T04:09:36;27.27;;;6.75;;
42742;SDS011;28397;44.552;-0.848;2024-02-26T04:12:02;34.80;;;7.80;;
42742;SDS011;28397;44.552;-0.848;2024-02-26T04:14:28;32.90;;;8.02;;
42742;SDS011;28397;44.552;-0.848;2024-02-26T04:16:54;33.35;;;8.02;;
42742;SDS011;28397;44.552;-0.848;2024-02-26T04:19:20;39.08;;;8.27;;
42742;SDS011;28397;44.552;-0.848;2024-02-26T04:21:45;35.50;;;7.93;;
42742;SDS011;28397;44.552;-0.848;2024-02-26T04:24:11;34.90;;;7.85;;
42742;SDS011;28397;44.552;-0.848;2024-02-26T04:26:37;30.42;;;8.13;;
42742;SDS011;28397;44.552;-0.848;2024-02-26T04:29:02;30.98;;;7.97;;
42742;SDS011;28397;44.552;-0.848;2024-02-26T04:31:28;31.55;;;7.80;;
42742;SDS011;28397;44.552;-0.848;2024-02-26T04:33:55;31.00;;;7.93;;
42742;SDS011;28397;44.552;-0.848;2024-02-26T04:36:21;29.83;;;7.40;;
42742;SDS011;28397;44.552;-0.848;2024-02-26T04:38:47;33.25;;;7.53;;
42742;SDS011;28397;44.552;-0.848;2024-02-26T04:41:12;32.78;;;7.55;;
42742;SDS011;28397;44.552;-0.848;2024-02-26T04:43:38;29.55;;;7.05;;
42742;SDS011;28397;44.552;-0.848;2024-02-26T04:46:09;27.63;;;7.55;;
42742;SDS011;28397;44.552;-0.848;2024-02-26T04:48:35;25.70;;;6.30;;
42742;SDS011;28397;44.552;-0.848;2024-02-26T04:51:01;26.95;;;7.20;;
42742;SDS011;28397;44.552;-0.848;2024-02-26T04:53:27;28.95;;;7.18;;
42742;SDS011;28397;44.552;-0.848;2024-02-26T04:55:53;33.33;;;7.32;;
42742;SDS011;28397;44.552;-0.848;2024-02-26T04:58:19;30.48;;;7.60;;
42742;SDS011;28397;44.552;-0.848;2024-02-26T05:00:44;24.42;;;6.45;;
42742;SDS011;28397;44.552;-0.848;2024-02-26T05:03:10;24.23;;;5.68;;
42742;SDS011;28397;44.552;-0.848;2024-02-26T05:05:40;26.75;;;5.70;;
42742;SDS011;28397;44.552;-0.848;2024-02-26T05:08:06;24.92;;;6.38;;
42742;SDS011;28397;44.552;-0.848;2024-02-26T05:10:32;33.50;;;7.22;;
42742;SDS011;28397;44.552;-0.848;2024-02-26T05:12:58;29.13;;;6.70;;
42742;SDS011;28397;44.552;-0.848;2024-02-26T05:15:24;31.17;;;7.72;;
42742;SDS011;28397;44.552;-0.848;2024-02-26T05:17:50;31.45;;;7.25;;
42742;SDS011;28397;44.552;-0.848;2024-02-26T05:20:15;27.65;;;6.78;;
42742;SDS011;28397;44.552;-0.848;2024-02-26T05:22:41;24.65;;;6.47;;
42742;SDS011;28397;44.552;-0.848;2024-02-26T05:25:07;31.70;;;6.75;;
42742;SDS011;28397;44.552;-0.848;2024-02-26T05:27:33;30.30;;;6.82;;
42742;SDS011;28397;44.552;-0.848;2024-02-26T05:29:58;33.35;;;7.93;;
42742;SDS011;28397;44.552;-0.848;2024-02-26T05:32:24;39.08;;;8.68;;
42742;SDS011;28397;44.552;-0.848;2024-02-26T05:34:50;34.20;;;8.75;;
42742;SDS011;28397;44.552;-0.848;2024-02-26T05:37:15;33.53;;;7.78;;
42742;SDS011;28397;44.552;-0.848;2024-02-26T05:39:41;31.20;;;8.48;;
42742;SDS011;28397;44.552;-0.848;2024-02-26T05:42:06;34.45;;;8.20;;
42742;SDS011;28397;44.552;-0.848;2024-02-26T05:44:34;37.75;;;9.00;;
42742;SDS011;28397;44.552;-0.848;2024-02-26T05:46:59;40.20;;;8.88;;
42742;SDS011;28397;44.552;-0.848;2024-02-26T05:49:25;40.90;;;9.00;;
42742;SDS011;28397;44.552;-0.848;2024-02-26T05:51:51;36.03;;;9.38;;
42742;SDS011;28397;44.552;-0.848;2024-02-26T05:54:16;41.08;;;8.68;;
42742;SDS011;28397;44.552;-0.848;2024-02-26T05:56:42;34.63;;;8.77;;
42742;SDS011;28397;44.552;-0.848;2024-02-26T05:59:07;29.33;;;6.80;;
42742;SDS011;28397;44.552;-0.848;2024-02-26T06:01:33;23.63;;;5.82;;
42742;SDS011;28397;44.552;-0.848;2024-02-26T06:03:59;25.00;;;6.18;;
42742;SDS011;28397;44.552;-0.848;2024-02-26T06:06:24;31.10;;;7.28;;
42742;SDS011;28397;44.552;-0.848;2024-02-26T06:08:50;33.97;;;7.90;;
42742;SDS011;28397;44.552;-0.848;2024-02-26T06:11:16;30.08;;;8.70;;
42742;SDS011;28397;44.552;-0.848;2024-02-26T06:13:42;34.97;;;8.10;;
42742;SDS011;28397;44.552;-0.848;2024-02-26T06:16:08;36.25;;;9.07;;
42742;SDS011;28397;44.552;-0.848;2024-02-26T06:18:34;29.30;;;8.10;;
42742;SDS011;28397;44.552;-0.848;2024-02-26T06:21:00;30.77;;;8.93;;
42742;SDS011;28397;44.552;-0.848;2024-02-26T06:23:25;40.63;;;8.35;;
42742;SDS011;28397;44.552;-0.848;2024-02-26T06:25:51;39.75;;;8.48;;
42742;SDS011;28397;44.552;-0.848;2024-02-26T06:28:17;41.50;;;9.85;;
42742;SDS011;28397;44.552;-0.848;2024-02-26T06:30:43;35.10;;;8.68;;
42742;SDS011;28397;44.552;-0.848;2024-02-26T06:33:08;36.17;;;8.80;;
42742;SDS011;28397;44.552;-0.848;2024-02-26T06:35:34;32.60;;;8.75;;
42742;SDS011;28397;44.552;-0.848;2024-02-26T06:38:00;27.48;;;6.57;;
42742;SDS011;28397;44.552;-0.848;2024-02-26T06:40:25;25.48;;;6.63;;
42742;SDS011;28397;44.552;-0.848;2024-02-26T06:42:51;22.17;;;7.22;;
42742;SDS011;28397;44.552;-0.848;2024-02-26T06:45:17;27.50;;;6.80;;
42742;SDS011;28397;44.552;-0.848;2024-02-26T06:47:44;29.45;;;7.68;;
42742;SDS011;28397;44.552;-0.848;2024-02-26T06:50:11;30.40;;;7.65;;
42742;SDS011;28397;44.552;-0.848;2024-02-26T06:52:38;32.63;;;7.75;;
42742;SDS011;28397;44.552;-0.848;2024-02-26T06:55:04;33.17;;;7.35;;
42742;SDS011;28397;44.552;-0.848;2024-02-26T06:57:32;31.77;;;7.15;;
42742;SDS011;28397;44.552;-0.848;2024-02-26T06:59:58;28.38;;;7.10;;
42742;SDS011;28397;44.552;-0.848;2024-02-26T07:02:24;30.27;;;6.72;;
42742;SDS011;28397;44.552;-0.848;2024-02-26T07:04:50;29.42;;;6.57;;
42742;SDS011;28397;44.552;-0.848;2024-02-26T07:07:15;27.52;;;6.47;;
42742;SDS011;28397;44.552;-0.848;2024-02-26T07:09:43;26.60;;;6.65;;
42742;SDS011;28397;44.552;-0.848;2024-02-26T07:12:09;26.65;;;6.93;;
42742;SDS011;28397;44.552;-0.848;2024-02-26T07:14:34;26.02;;;6.30;;
42742;SDS011;28397;44.552;-0.848;2024-02-26T07:17:02;28.45;;;6.35;;
42742;SDS011;28397;44.552;-0.848;2024-02-26T07:19:28;28.65;;;6.80;;
42742;SDS011;28397;44.552;-0.848;2024-02-26T07:21:53;33.45;;;7.35;;
42742;SDS011;28397;44.552;-0.848;2024-02-26T07:24:20;25.08;;;6.65;;
42742;SDS011;28397;44.552;-0.848;2024-02-26T07:26:45;24.70;;;5.90;;
42742;SDS011;28397;44.552;-0.848;2024-02-26T07:29:11;24.52;;;6.35;;
42742;SDS011;28397;44.552;-0.848;2024-02-26T07:31:37;24.08;;;5.90;;
42742;SDS011;28397;44.552;-0.848;2024-02-26T07:34:02;29.58;;;6.68;;
42742;SDS011;28397;44.552;-0.848;2024-02-26T07:36:28;22.80;;;5.75;;
42742;SDS011;28397;44.552;-0.848;2024-02-26T07:38:54;21.23;;;4.93;;
42742;SDS011;28397;44.552;-0.848;2024-02-26T07:41:20;20.83;;;4.80;;
42742;SDS011;28397;44.552;-0.848;2024-02-26T07:43:45;22.15;;;5.22;;
42742;SDS011;28397;44.552;-0.848;2024-02-26T07:46:11;20.30;;;5.63;;
42742;SDS011;28397;44.552;-0.848;2024-02-26T07:48:37;22.98;;;6.00;;
42742;SDS011;28397;44.552;-0.848;2024-02-26T07:51:03;30.88;;;7.15;;
42742;SDS011;28397;44.552;-0.848;2024-02-26T07:53:29;25.92;;;5.95;;
42742;SDS011;28397;44.552;-0.848;2024-02-26T07:55:55;20.52;;;5.45;;
42742;SDS011;28397;44.552;-0.848;2024-02-26T07:58:21;24.65;;;6.35;;
42742;SDS011;28397;44.552;-0.848;2024-02-26T08:00:48;23.00;;;5.88;;
42742;SDS011;28397;44.552;-0.848;2024-02-26T08:03:14;24.67;;;6.00;;
42742;SDS011;28397;44.552;-0.848;2024-02-26T08:05:41;24.83;;;6.10;;
42742;SDS011;28397;44.552;-0.848;2024-02-26T08:08:08;28.20;;;6.30;;
42742;SDS011;28397;44.552;-0.848;2024-02-26T08:10:34;24.00;;;5.97;;
42742;SDS011;28397;44.552;-0.848;2024-02-26T08:12:59;27.63;;;6.22;;
42742;SDS011;28397;44.552;-0.848;2024-02-26T08:15:33;31.85;;;6.97;;
42742;SDS011;28397;44.552;-0.848;2024-02-26T08:18:00;32.70;;;7.72;;
42742;SDS011;28397;44.552;-0.848;2024-02-26T08:20:28;28.48;;;6.88;;
42742;SDS011;28397;44.552;-0.848;2024-02-26T08:22:54;30.08;;;7.30;;
42742;SDS011;28397;44.552;-0.848;2024-02-26T08:25:21;29.50;;;6.60;;
42742;SDS011;28397;44.552;-0.848;2024-02-26T08:27:47;30.33;;;7.32;;
42742;SDS011;28397;44.552;-0.848;2024-02-26T08:30:13;28.13;;;6.93;;
42742;SDS011;28397;44.552;-0.848;2024-02-26T08:32:43;29.75;;;6.22;;
42742;SDS011;28397;44.552;-0.848;2024-02-26T08:35:10;27.48;;;6.20;;
42742;SDS011;28397;44.552;-0.848;2024-02-26T08:37:36;18.50;;;4.95;;
42742;SDS011;28397;44.552;-0.848;2024-02-26T08:40:01;24.13;;;5.80;;
42742;SDS011;28397;44.552;-0.848;2024-02-26T08:42:29;27.38;;;5.97;;
42742;SDS011;28397;44.552;-0.848;2024-02-26T08:44:55;22.50;;;5.70;;
42742;SDS011;28397;44.552;-0.848;2024-02-26T08:47:21;24.63;;;6.07;;
42742;SDS011;28397;44.552;-0.848;2024-02-26T08:49:48;26.83;;;6.90;;
42742;SDS011;28397;44.552;-0.848;2024-02-26T08:52:13;20.02;;;6.53;;
42742;SDS011;28397;44.552;-0.848;2024-02-26T08:54:39;21.33;;;5.68;;
42742;SDS011;28397;44.552;-0.848;2024-02-26T08:57:05;21.80;;;5.43;;
42742;SDS011;28397;44.552;-0.848;2024-02-26T08:59:31;20.42;;;5.03;;
42742;SDS011;28397;44.552;-0.848;2024-02-26T09:01:56;15.07;;;4.20;;
42742;SDS011;28397;44.552;-0.848;2024-02-26T09:04:22;16.15;;;4.15;;
42742;SDS011;28397;44.552;-0.848;2024-02-26T09:06:48;15.43;;;4.00;;
42742;SDS011;28397;44.552;-0.848;2024-02-26T09:09:14;15.10;;;3.60;;
42742;SDS011;28397;44.552;-0.848;2024-02-26T09:11:39;12.95;;;3.45;;
42742;SDS011;28397;44.552;-0.848;2024-02-26T09:14:05;12.63;;;3.35;;
42742;SDS011;28397;44.552;-0.848;2024-02-26T09:16:31;14.25;;;2.97;;
42742;SDS011;28397;44.552;-0.848;2024-02-26T09:18:56;14.05;;;3.35;;
42742;SDS011;28397;44.552;-0.848;2024-02-26T09:21:22;13.30;;;3.42;;
42742;SDS011;28397;44.552;-0.848;2024-02-26T09:23:50;12.63;;;3.50;;
42742;SDS011;28397;44.552;-0.848;2024-02-26T09:26:16;18.33;;;4.20;;
42742;SDS011;28397;44.552;-0.848;2024-02-26T09:28:42;12.65;;;3.47;;
42742;SDS011;28397;44.552;-0.848;2024-02-26T09:31:07;24.20;;;5.13;;
42742;SDS011;28397;44.552;-0.848;2024-02-26T09:33:33;21.42;;;4.82;;
42742;SDS011;28397;44.552;-0.848;2024-02-26T09:35:59;22.50;;;5.60;;
42742;SDS011;28397;44.552;-0.848;2024-02-26T09:38:28;23.73;;;6.00;;
42742;SDS011;28397;44.552;-0.848;2024-02-26T09:40:55;20.85;;;5.50;;
42742;SDS011;28397;44.552;-0.848;2024-02-26T09:43:23;24.02;;;5.20;;
42742;SDS011;28397;44.552;-0.848;2024-02-26T09:45:52;26.60;;;5.47;;
42742;SDS011;28397;44.552;-0.848;2024-02-26T09:48:18;22.77;;;5.45;;
42742;SDS011;28397;44.552;-0.848;2024-02-26T09:50:45;23.55;;;5.93;;
42742;SDS011;28397;44.552;-0.848;2024-02-26T09:53:12;24.98;;;5.60;;
42742;SDS011;28397;44.552;-0.848;2024-02-26T09:55:40;25.80;;;5.28;;
42742;SDS011;28397;44.552;-0.848;2024-02-26T09:58:05;23.85;;;6.25;;
42742;SDS011;28397;44.552;-0.848;2024-02-26T10:00:32;21.60;;;6.28;;
42742;SDS011;28397;44.552;-0.848;2024-02-26T10:03:03;24.85;;;6.55;;
42742;SDS011;28397;44.552;-0.848;2024-02-26T10:05:29;24.05;;;8.43;;
42742;SDS011;28397;44.552;-0.848;2024-02-26T10:07:56;24.13;;;8.13;;
42742;SDS011;28397;44.552;-0.848;2024-02-26T10:10:23;20.80;;;8.00;;
42742;SDS011;28397;44.552;-0.848;2024-02-26T10:12:49;17.83;;;6.80;;
42742;SDS011;28397;44.552;-0.848;2024-02-26T10:15:15;20.13;;;6.30;;
42742;SDS011;28397;44.552;-0.848;2024-02-26T10:17:41;18.13;;;6.90;;
42742;SDS011;28397;44.552;-0.848;2024-02-26T10:20:11;17.20;;;7.18;;
42742;SDS011;28397;44.552;-0.848;2024-02-26T10:22:39;22.05;;;7.45;;
42742;SDS011;28397;44.552;-0.848;2024-02-26T10:25:06;18.70;;;6.15;;
42742;SDS011;28397;44.552;-0.848;2024-02-26T10:27:33;17.45;;;6.05;;
42742;SDS011;28397;44.552;-0.848;2024-02-26T10:30:02;17.30;;;5.47;;
42742;SDS011;28397;44.552;-0.848;2024-02-26T10:32:47;18.70;;;4.90;;
42742;SDS011;28397;44.552;-0.848;2024-02-26T10:35:14;19.35;;;5.03;;
42742;SDS011;28397;44.552;-0.848;2024-02-26T10:37:41;18.35;;;4.38;;
42742;SDS011;28397;44.552;-0.848;2024-02-26T10:40:16;15.45;;;4.72;;
42742;SDS011;28397;44.552;-0.848;2024-02-26T10:42:42;18.52;;;5.70;;
42742;SDS011;28397;44.552;-0.848;2024-02-26T10:45:09;16.50;;;5.43;;
42742;SDS011;28397;44.552;-0.848;2024-02-26T10:47:35;15.88;;;5.55;;
42742;SDS011;28397;44.552;-0.848;2024-02-26T10:50:02;18.48;;;5.97;;
42742;SDS011;28397;44.552;-0.848;2024-02-26T10:52:30;15.70;;;5.00;;
42742;SDS011;28397;44.552;-0.848;2024-02-26T10:54:57;13.57;;;4.20;;
42742;SDS011;28397;44.552;-0.848;2024-02-26T10:57:29;14.85;;;3.97;;
42742;SDS011;28397;44.552;-0.848;2024-02-26T11:00:02;10.68;;;3.25;;
42742;SDS011;28397;44.552;-0.848;2024-02-26T11:02:34;12.60;;;3.67;;
42742;SDS011;28397;44.552;-0.848;2024-02-26T11:05:04;9.95;;;2.17;;
42742;SDS011;28397;44.552;-0.848;2024-02-26T11:07:31;10.10;;;2.03;;
42742;SDS011;28397;44.552;-0.848;2024-02-26T11:10:02;8.60;;;1.88;;
42742;SDS011;28397;44.552;-0.848;2024-02-26T11:12:29;8.77;;;2.40;;
42742;SDS011;28397;44.552;-0.848;2024-02-26T11:14:56;7.82;;;2.13;;
42742;SDS011;28397;44.552;-0.848;2024-02-26T11:17:25;6.85;;;1.67;;
42742;SDS011;28397;44.552;-0.848;2024-02-26T11:19:54;7.85;;;1.50;;
42742;SDS011;28397;44.552;-0.848;2024-02-26T11:22:21;6.40;;;1.90;;
42742;SDS011;28397;44.552;-0.848;2024-02-26T11:24:47;6.53;;;2.00;;
42742;SDS011;28397;44.552;-0.848;2024-02-26T11:27:13;7.82;;;2.15;;
42742;SDS011;28397;44.552;-0.848;2024-02-26T11:29:47;7.60;;;1.77;;
42742;SDS011;28397;44.552;-0.848;2024-02-26T11:32:14;6.32;;;2.38;;
42742;SDS011;28397;44.552;-0.848;2024-02-26T11:34:40;6.28;;;2.00;;
42742;SDS011;28397;44.552;-0.848;2024-02-26T11:39:41;7.53;;;2.20;;
42742;SDS011;28397;44.552;-0.848;2024-02-26T11:42:07;8.40;;;2.58;;
42742;SDS011;28397;44.552;-0.848;2024-02-26T11:44:34;10.18;;;2.42;;
42742;SDS011;28397;44.552;-0.848;2024-02-26T11:47:22;9.15;;;3.10;;
42742;SDS011;28397;44.552;-0.848;2024-02-26T11:49:47;10.50;;;3.30;;
42742;SDS011;28397;44.552;-0.848;2024-02-26T11:52:14;11.15;;;2.85;;
42742;SDS011;28397;44.552;-0.848;2024-02-26T11:54:50;10.77;;;3.08;;
42742;SDS011;28397;44.552;-0.848;2024-02-26T11:57:20;11.75;;;3.17;;
42742;SDS011;28397;44.552;-0.848;2024-02-26T11:59:46;13.32;;;3.60;;
42742;SDS011;28397;44.552;-0.848;2024-02-26T12:02:19;12.57;;;3.30;;
42742;SDS011;28397;44.552;-0.848;2024-02-26T12:05:06;11.43;;;2.88;;
42742;SDS011;28397;44.552;-0.848;2024-02-26T12:07:36;12.80;;;2.70;;
42742;SDS011;28397;44.552;-0.848;2024-02-26T12:15:39;13.07;;;2.83;;
42742;SDS011;28397;44.552;-0.848;2024-02-26T12:18:07;13.05;;;3.10;;
42742;SDS011;28397;44.552;-0.848;2024-02-26T12:20:34;15.68;;;3.88;;
42742;SDS011;28397;44.552;-0.848;2024-02-26T12:23:00;12.75;;;3.25;;
42742;SDS011;28397;44.552;-0.848;2024-02-26T12:25:28;14.57;;;3.95;;
42742;SDS011;28397;44.552;-0.848;2024-02-26T12:27:54;13.07;;;3.38;;
42742;SDS011;28397;44.552;-0.848;2024-02-26T12:30:21;14.05;;;3.30;;
42742;SDS011;28397;44.552;-0.848;2024-02-26T12:32:47;8.50;;;2.55;;
42742;SDS011;28397;44.552;-0.848;2024-02-26T12:35:15;15.35;;;3.00;;
42742;SDS011;28397;44.552;-0.848;2024-02-26T12:37:41;8.35;;;2.47;;
42742;SDS011;28397;44.552;-0.848;2024-02-26T12:40:08;7.90;;;1.95;;
42742;SDS011;28397;44.552;-0.848;2024-02-26T12:42:34;9.90;;;2.25;;
42742;SDS011;28397;44.552;-0.848;2024-02-26T12:45:10;10.43;;;2.47;;
42742;SDS011;28397;44.552;-0.848;2024-02-26T12:47:38;9.60;;;2.88;;
42742;SDS011;28397;44.552;-0.848;2024-02-26T12:50:04;10.73;;;2.65;;
42742;SDS011;28397;44.552;-0.848;2024-02-26T12:52:31;9.27;;;2.40;;
42742;SDS011;28397;44.552;-0.848;2024-02-26T12:55:01;7.40;;;2.22;;
42742;SDS011;28397;44.552;-0.848;2024-02-26T12:57:33;6.18;;;2.13;;
42742;SDS011;28397;44.552;-0.848;2024-02-26T13:00:01;8.18;;;1.95;;
42742;SDS011;28397;44.552;-0.848;2024-02-26T13:02:29;9.05;;;2.33;;
42742;SDS011;28397;44.552;-0.848;2024-02-26T13:04:55;8.38;;;2.17;;
42742;SDS011;28397;44.552;-0.848;2024-02-26T13:07:21;9.90;;;3.08;;
42742;SDS011;28397;44.552;-0.848;2024-02-26T13:09:47;12.65;;;3.38;;
42742;SDS011;28397;44.552;-0.848;2024-02-26T13:12:13;13.27;;;3.17;;
42742;SDS011;28397;44.552;-0.848;2024-02-26T13:14:39;9.38;;;2.70;;
42742;SDS011;28397;44.552;-0.848;2024-02-26T13:17:05;11.00;;;2.70;;
42742;SDS011;28397;44.552;-0.848;2024-02-26T13:19:31;10.05;;;2.75;;
42742;SDS011;28397;44.552;-0.848;2024-02-26T13:22:04;12.75;;;3.13;;
42742;SDS011;28397;44.552;-0.848;2024-02-26T13:24:31;12.75;;;3.00;;
42742;SDS011;28397;44.552;-0.848;2024-02-26T13:26:57;12.00;;;3.00;;
42742;SDS011;28397;44.552;-0.848;2024-02-26T13:29:23;11.13;;;3.25;;
42742;SDS011;28397;44.552;-0.848;2024-02-26T13:31:55;10.48;;;2.67;;
42742;SDS011;28397;44.552;-0.848;2024-02-26T13:34:23;4.43;;;1.27;;
42742;SDS011;28397;44.552;-0.848;2024-02-26T13:36:53;6.65;;;1.60;;
42742;SDS011;28397;44.552;-0.848;2024-02-26T13:39:23;8.70;;;2.00;;
42742;SDS011;28397;44.552;-0.848;2024-02-26T13:41:50;8.35;;;2.15;;
42742;SDS011;28397;44.552;-0.848;2024-02-26T13:44:17;7.05;;;2.35;;
42742;SDS011;28397;44.552;-0.848;2024-02-26T13:46:44;11.18;;;2.30;;
42742;SDS011;28397;44.552;-0.848;2024-02-26T13:49:10;8.25;;;2.03;;
42742;SDS011;28397;44.552;-0.848;2024-02-26T13:51:36;5.85;;;1.80;;
42742;SDS011;28397;44.552;-0.848;2024-02-26T13:54:02;6.68;;;2.17;;
42742;SDS011;28397;44.552;-0.848;2024-02-26T13:56:29;7.05;;;2.20;;
42742;SDS011;28397;44.552;-0.848;2024-02-26T13:58:55;7.45;;;2.20;;
42742;SDS011;28397;44.552;-0.848;2024-02-26T14:01:20;8.75;;;2.70;;
42742;SDS011;28397;44.552;-0.848;2024-02-26T14:03:46;8.23;;;2.50;;
42742;SDS011;28397;44.552;-0.848;2024-02-26T14:06:12;9.13;;;2.80;;
42742;SDS011;28397;44.552;-0.848;2024-02-26T14:08:37;6.03;;;2.17;;
42742;SDS011;28397;44.552;-0.848;2024-02-26T14:11:03;10.98;;;2.67;;
42742;SDS011;28397;44.552;-0.848;2024-02-26T14:13:29;6.75;;;2.20;;
42742;SDS011;28397;44.552;-0.848;2024-02-26T14:15:54;6.45;;;2.25;;
42742;SDS011;28397;44.552;-0.848;2024-02-26T14:18:21;5.03;;;1.90;;
42742;SDS011;28397;44.552;-0.848;2024-02-26T14:20:46;8.23;;;2.35;;
42742;SDS011;28397;44.552;-0.848;2024-02-26T14:23:12;7.70;;;2.30;;
42742;SDS011;28397;44.552;-0.848;2024-02-26T14:25:37;8.23;;;2.25;;
42742;SDS011;28397;44.552;-0.848;2024-02-26T14:28:03;10.15;;;2.75;;